Mc Lean, Virginia
Current Conditions -  °F | °C
As of 2:52 PM on Friday 28 Nov 2014 (Local Time) from KDCA Reporting Station
Broken Clouds Broken Clouds  
Wind Chill: 33°   Ceiling: 4500
Heat Index: 40°   Visibility: 10mi
Dew Point: 18°   Wind: 12mph
Humidity: 41%   Direction: 310°NW
Pressure: 30.28"   Gusts: 18mph
Location:  38.9398°N, 77.1677°W
Report Text: KDCA 281952Z 31010G16KT 10SM BKN045 04/M08 A3028 RMK AO2 SLP254 T00441078
Loading
Personal Weather Stations






























Interactive Weather Map New forecast layout! Learn more

10-Day Weather Forecast

Advertisements
Track Severe Weather on mobile